Ana Sayfa
METAR-TAF:

METAR-TAF

Havaalanları :

Cenevre Havalimanı

Cenevre, İsviçre

Enlem: 46-15N, Boylam: 006-08E, yükseklik: 420 m

Güncel hava durumu gözlemi

Rapor saat 12:20 UTC de 40 dakika önce yapıldı.
Rüzgar güneybatıdan 7 kt, güney/güneybatı ve batı arasında değişken
Sıcaklık 12°C
Nem 47%
Basınç 1030 hPa
Görüş mesafesi 10 km veya daha fazla
1500 m altında bulut yok ve kümülonimbus yok

METAR: LSGG 221220Z 23007KT 200V270 CAVOK 12/01 Q1030 NOSIG

Saat: 14:00 (13:00 UTC)

Tahmin

Rapor saat 11:25 UTC de 1 saat ve 35 dakika önce yapıldı.
Ayın 22'si saat 12 UTC'den ayın 23'si saat 18 UTC'ye kadar geçerli Tahmin
Rüzgar değişken yönden 3 kt
Görüş mesafesi 10 km veya daha fazla
1500 m altında bulut yok ve kümülonimbus yok

TAF: LSGG 221125Z 2212/2318 VRB03KT CAVOK TX13/2215Z TN01/2306Z TX16/2315Z

4.000'den fazla havaalanı için hava durumu gözlemleri ve tahminleri (METAR ve TAF raporları).

Kullanılabilir istasyonlar harita üzerinde sarı ve kırmızı noktalarla gösterilir.

İstasyonun adını görmek için fareyi noktanın üzerinde gezdirin.

Sonrasında hava gözlem ve tahminlerini görmek için tıklayın.

Haritayı değiştirmek için: yaklaştırmak için siyah artı işaretli yeşil düğmeye ve uzaklaştırmak için de eksi işaretli düğmeye hızla tıklayın; bitişik haritalar için yeşil okları kullanın.


METAR-TAF: